Terminal Aerodrome Forecast
Issued by NWS

Home | Current Version | Previous Version | Graphics & Text | Print | Product List | Glossary On
Versions: 1 2 3 4 5 6 7 8 9 10 11 12 13 14 15 16
000
FTUS45 KGGW 161720
TAFGDV
TAF
KGDV 161720Z 1618/1718 02008KT P6SM VCSH BKN008 OVC013
     FM162300 35009KT P6SM VCSH OVC020
     FM170400 VRB05KT P6SM BKN030
     FM171300 VRB05KT 3SM BR SCT100=

USA.gov is the U.S. government's official web portal to all federal, state and local government web resources and services.